createdAt,value
2022-09-03T00:04:10.348Z,9.1
2022-09-03T00:09:14.864Z,9.1
2022-09-03T00:14:19.385Z,9.1
2022-09-03T00:19:22.963Z,9.1
2022-09-03T00:24:27.512Z,9.2
2022-09-03T00:29:31.998Z,9.2
2022-09-03T00:34:36.573Z,9.2
2022-09-03T00:39:40.187Z,9.2
2022-09-03T00:44:44.619Z,9.2
2022-09-03T00:49:49.195Z,9.2
2022-09-03T00:54:52.729Z,9.2
2022-09-03T00:59:57.265Z,9.2
2022-09-03T01:05:01.775Z,9.1
2022-09-03T01:10:05.321Z,9.1
2022-09-03T01:15:09.883Z,9.1
2022-09-03T01:20:14.402Z,9.1
2022-09-03T01:25:17.968Z,9.1
2022-09-03T01:30:22.515Z,9.1
2022-09-03T01:35:27.187Z,9.1
2022-09-03T01:40:31.593Z,9.1
2022-09-03T01:45:35.147Z,9.1
2022-09-03T01:50:39.654Z,9.1
2022-09-03T01:55:44.150Z,9.1
2022-09-03T02:00:47.714Z,9.1
2022-09-03T02:05:51.295Z,9.1
2022-09-03T02:10:55.795Z,9.1
2022-09-03T02:16:00.497Z,9.1
2022-09-03T02:21:04.851Z,9.1
2022-09-03T02:26:08.410Z,9.1
2022-09-03T02:31:12.989Z,9.1
2022-09-03T02:36:17.503Z,9.1
2022-09-03T02:41:21.004Z,9.1
2022-09-03T02:46:25.633Z,9.1
2022-09-03T02:51:30.072Z,9.1
2022-09-03T02:56:33.655Z,9.2
2022-09-03T03:01:38.202Z,9.1
2022-09-03T03:06:42.735Z,9.1
2022-09-03T03:11:46.251Z,9.2
2022-09-03T03:16:50.874Z,9.1
2022-09-03T03:21:55.339Z,9.2
2022-09-03T03:26:59.856Z,9.2
2022-09-03T03:32:03.407Z,9.2
2022-09-03T03:37:07.945Z,9.2
2022-09-03T03:42:12.478Z,9.2
2022-09-03T03:47:16.057Z,9.1
2022-09-03T03:52:20.539Z,9.2
2022-09-03T03:57:25.093Z,9.1
2022-09-03T04:02:28.797Z,9.2
2022-09-03T04:07:33.198Z,9.2
2022-09-03T04:12:37.733Z,9.2
2022-09-03T04:17:41.237Z,9.3
2022-09-03T04:22:49.061Z,9.4
2022-09-03T04:27:50.291Z,9.3
2022-09-03T04:32:54.838Z,9.4
2022-09-03T04:37:58.395Z,9.3
2022-09-03T04:43:02.938Z,9.4
2022-09-03T04:48:07.502Z,9.4
2022-09-03T04:53:11.040Z,9.4
2022-09-03T04:58:15.581Z,9.4
2022-09-03T05:03:20.054Z,9.4
2022-09-03T05:08:23.697Z,9.5
2022-09-03T05:13:28.141Z,9.5
2022-09-03T05:18:32.691Z,9.5
2022-09-03T05:23:37.736Z,9.7
2022-09-03T05:28:40.760Z,9.6
2022-09-03T05:33:45.340Z,9.6
2022-09-03T05:38:49.821Z,9.8
2022-09-03T05:43:53.379Z,9.8
2022-09-03T05:48:57.914Z,9.8
2022-09-03T05:54:02.434Z,9.7
2022-09-03T05:59:05.981Z,9.9
2022-09-03T06:04:10.545Z,9.8
2022-09-03T06:09:15.055Z,10
2022-09-03T06:14:18.610Z,10
2022-09-03T06:19:23.117Z,10.1
2022-09-03T06:24:28.245Z,10
2022-09-03T06:29:31.234Z,10.2
2022-09-03T06:34:35.793Z,10.2
2022-09-03T06:39:39.420Z,10.2
2022-09-03T06:44:43.877Z,10.3
2022-09-03T06:49:48.391Z,10.5
2022-09-03T06:54:51.953Z,10.6
2022-09-03T06:59:56.491Z,10.5
2022-09-03T07:05:00.984Z,10.8
2022-09-03T07:10:04.608Z,10.9
2022-09-03T07:15:09.073Z,11.1
2022-09-03T07:20:13.634Z,10.7
2022-09-03T07:25:18.234Z,11
2022-09-03T07:30:21.796Z,10.9
2022-09-03T07:35:26.261Z,10.7
2022-09-03T07:40:30.776Z,10.8
2022-09-03T07:45:34.321Z,10.8
2022-09-03T07:50:38.857Z,11
2022-09-03T07:55:43.397Z,11
2022-09-03T08:00:46.964Z,11.1
2022-09-03T08:05:51.462Z,11.2
2022-09-03T08:10:56.022Z,11.3
2022-09-03T08:15:59.700Z,11.3
2022-09-03T08:21:04.077Z,11.3
2022-09-03T08:26:08.611Z,11.3
2022-09-03T08:31:13.244Z,11.4
2022-09-03T08:36:16.728Z,11.8
2022-09-03T08:41:21.249Z,12.2
2022-09-03T08:46:25.778Z,12.1
2022-09-03T08:51:29.313Z,12.2
2022-09-03T08:56:33.901Z,12.3
2022-09-03T09:01:38.488Z,12.4
2022-09-03T09:06:41.944Z,12.6
2022-09-03T09:11:46.475Z,12.5
2022-09-03T09:16:51.311Z,12.6
2022-09-03T09:21:54.565Z,12.4
2022-09-03T09:26:59.071Z,12.3
2022-09-03T09:32:03.654Z,12.4
2022-09-03T09:37:08.145Z,12.4
2022-09-03T09:42:11.769Z,12.4
2022-09-03T09:47:16.257Z,12.5
2022-09-03T09:52:20.784Z,12.7
2022-09-03T09:57:24.311Z,12.7
2022-09-03T10:02:29.052Z,12.8
2022-09-03T10:07:33.411Z,12.9
2022-09-03T10:12:37.014Z,13
2022-09-03T10:17:41.469Z,13.2
2022-09-03T10:22:56.479Z,13.5
2022-09-03T10:27:49.565Z,13.6
2022-09-03T10:32:54.123Z,13.6
2022-09-03T10:37:57.628Z,13.5
2022-09-03T10:43:02.194Z,13.5
2022-09-03T10:48:06.704Z,13.7
2022-09-03T10:53:10.247Z,13.8
2022-09-03T10:58:14.793Z,14.2
2022-09-03T11:03:20.947Z,14.4
2022-09-03T11:08:22.913Z,14.4
2022-09-03T11:13:27.390Z,14.8
2022-09-03T11:18:31.966Z,15.1
2022-09-03T11:23:36.501Z,15.3
2022-09-03T11:28:40.080Z,14.9
2022-09-03T11:33:44.566Z,15.1
2022-09-03T11:38:49.132Z,14.9
2022-09-03T11:43:52.658Z,15.3
2022-09-03T11:48:57.213Z,15.2
2022-09-03T11:54:02.030Z,15.3
2022-09-03T11:59:05.308Z,15.5
2022-09-03T12:04:09.876Z,15
2022-09-03T12:09:14.369Z,15.5
2022-09-03T12:14:17.936Z,15.4
2022-09-03T12:19:22.468Z,15.3
2022-09-03T12:24:27.023Z,15.8
2022-09-03T12:29:31.536Z,16.1
2022-09-03T12:34:35.057Z,15.9
2022-09-03T12:40:09.018Z,16.1
2022-09-03T12:44:44.131Z,16.3
2022-09-03T12:49:47.723Z,16.2
2022-09-03T12:54:52.224Z,16.5
2022-09-03T12:59:56.771Z,16.5
2022-09-03T13:05:00.363Z,16.7
2022-09-03T13:10:04.857Z,16.6
2022-09-03T13:15:09.415Z,16.4
2022-09-03T13:20:12.985Z,16.6
2022-09-03T13:25:17.501Z,16.4
2022-09-03T13:30:22.244Z,16.5
2022-09-03T13:35:26.808Z,16.9
2022-09-03T13:40:30.414Z,16.7
2022-09-03T13:45:35.047Z,16.8
2022-09-03T13:50:39.429Z,16.9
2022-09-03T13:55:42.984Z,16.9
2022-09-03T14:00:47.565Z,17.2
2022-09-03T14:05:52.056Z,17.5
2022-09-03T14:10:55.608Z,17.2
2022-09-03T14:16:00.155Z,17.4
2022-09-03T14:21:04.662Z,16.7
2022-09-03T14:26:08.240Z,17
2022-09-03T14:31:12.801Z,17.1
2022-09-03T14:36:17.321Z,16.8
2022-09-03T14:41:21.825Z,17.2
2022-09-03T14:46:25.503Z,17.3
2022-09-03T14:51:28.968Z,17.1
2022-09-03T14:56:33.495Z,17.3
2022-09-03T15:01:39.349Z,17.5
2022-09-03T15:06:41.557Z,17.2
2022-09-03T15:11:46.090Z,17.1
2022-09-03T15:16:50.692Z,17.1
2022-09-03T15:21:55.214Z,16.8
2022-09-03T15:26:58.731Z,16.8
2022-09-03T15:32:03.354Z,16.6
2022-09-03T15:37:07.811Z,16.5
2022-09-03T15:42:11.599Z,16.6
2022-09-03T15:47:15.851Z,16.7
2022-09-03T15:52:20.387Z,16.7
2022-09-03T15:57:23.956Z,16.6
2022-09-03T16:02:28.468Z,16.7
2022-09-03T16:07:33.027Z,16.8
2022-09-03T16:12:36.586Z,17.3
2022-09-03T16:17:41.096Z,17.3
2022-09-03T16:22:45.618Z,17.4
2022-09-03T16:27:50.184Z,17.2
2022-09-03T16:32:53.699Z,16.9
2022-09-03T16:37:58.244Z,16.5
2022-09-03T16:43:10.101Z,16.4
2022-09-03T16:48:06.341Z,16.3
2022-09-03T16:53:10.849Z,16
2022-09-03T16:58:15.419Z,15.9
2022-09-03T17:03:21.406Z,15.8
2022-09-03T17:08:23.467Z,15.9
2022-09-03T17:13:28.018Z,15.9
2022-09-03T17:24:52.246Z,16.2
2022-09-03T17:29:56.802Z,16.3
2022-09-03T17:35:00.351Z,16.5
2022-09-03T17:40:04.976Z,16.6
2022-09-03T17:45:09.397Z,16.6
2022-09-03T17:50:13.923Z,16.7
2022-09-03T17:55:17.496Z,16.8
2022-09-03T18:00:22.091Z,16.8
2022-09-03T18:05:26.565Z,16.7
2022-09-03T18:10:30.109Z,16.7
2022-09-03T18:15:34.634Z,16.5
2022-09-03T18:20:39.193Z,16.5
2022-09-03T18:25:42.707Z,16.3
2022-09-03T18:30:47.255Z,16.1
2022-09-03T18:35:51.766Z,16.2
2022-09-03T18:40:55.340Z,16.1
2022-09-03T18:51:04.401Z,15.9
2022-09-03T18:56:08.911Z,15.9
2022-09-03T19:01:12.471Z,16
2022-09-03T19:06:16.011Z,16
2022-09-03T19:11:20.566Z,16
2022-09-03T19:16:25.171Z,15.9
2022-09-03T19:21:28.664Z,15.9
2022-09-03T19:26:33.186Z,16
2022-09-03T19:31:37.821Z,16.1
2022-09-03T19:36:42.256Z,16.1
2022-09-03T19:41:45.802Z,16.2
2022-09-03T19:46:50.322Z,16.1
2022-09-03T19:51:54.904Z,16.1
2022-09-03T19:56:58.393Z,16.1
2022-09-03T20:02:03.073Z,16.1
2022-09-03T20:07:07.632Z,16.1
2022-09-03T20:12:11.027Z,16
2022-09-03T20:17:15.549Z,16.1
2022-09-03T20:22:20.101Z,16.1
2022-09-03T20:27:23.624Z,16.1
2022-09-03T20:32:28.402Z,16.1
2022-09-03T20:37:32.727Z,16
2022-09-03T20:42:37.241Z,16.1
2022-09-03T20:47:40.794Z,16
2022-09-03T20:52:45.306Z,16.1
2022-09-03T20:57:49.854Z,16.1
2022-09-03T21:02:53.512Z,16.2
2022-09-03T21:07:57.972Z,16.2
2022-09-03T21:13:02.483Z,16.2
2022-09-03T21:18:06.041Z,16.2
2022-09-03T21:23:11.441Z,16.2
2022-09-03T21:28:15.113Z,16.2
2022-09-03T21:33:18.625Z,16.2
2022-09-03T21:38:23.251Z,16.2
2022-09-03T21:43:28.264Z,16.2
2022-09-03T21:48:32.252Z,16.1
2022-09-03T21:53:35.825Z,16.2
2022-09-03T21:58:40.308Z,16.2
2022-09-03T22:03:44.852Z,16.2
2022-09-03T22:08:48.448Z,16.2
2022-09-03T22:13:52.970Z,16.2
2022-09-03T22:18:57.506Z,16.2
2022-09-03T22:24:01.002Z,16.1
2022-09-03T22:29:05.707Z,16.1
2022-09-03T22:34:10.077Z,16.1
2022-09-03T22:39:13.828Z,16.1
2022-09-03T22:44:18.187Z,16
2022-09-03T22:49:22.686Z,16
2022-09-03T22:54:27.259Z,16
2022-09-03T22:59:30.764Z,16
2022-09-03T23:04:35.304Z,16
2022-09-03T23:09:39.842Z,16
2022-09-03T23:14:43.398Z,15.9
2022-09-03T23:19:46.934Z,16
2022-09-03T23:24:51.499Z,15.9
2022-09-03T23:29:56.042Z,15.9
2022-09-03T23:35:00.564Z,15.9
2022-09-03T23:40:04.250Z,16
2022-09-03T23:45:08.668Z,16
2022-09-03T23:50:13.169Z,16
2022-09-03T23:55:16.851Z,16
